Time;durP1;ratioP1;P1;durP2;ratioP2;P2;SDS_P1;SDS_P2;PMS_P1;PMS_P2;Temp;Humidity;BMP_temperature;BMP_pressure;BME280_temperature;BME280_humidity;BME280_pressure;Samples;Min_cycle;Max_cycle;Signal;HPM_P1;HPM_P2
2022/10/25 00:05:52;;;;;;;5.35;4.80;;;14.30;99.90;;;;;;6223582;22;20243;-91
2022/10/25 00:08:20;;;;;;;6.20;5.60;;;14.10;99.90;;;;;;6139317;23;20195;-90
2022/10/25 00:16:15;;;;;;;7.63;6.78;;;14.00;99.90;;;;;;6184700;22;20260;-91
2022/10/25 00:40:13;;;;;;;6.70;4.90;;;14.20;99.90;;;;;;6171829;22;20251;-92
2022/10/25 00:42:43;;;;;;;6.53;5.93;;;13.80;99.90;;;;;;6188154;22;20189;-90
2022/10/25 00:45:27;;;;;;;8.80;6.35;;;13.90;99.90;;;;;;6207739;22;20204;-89
2022/10/25 00:48:04;;;;;;;12.98;6.25;;;13.80;99.90;;;;;;6188677;22;20216;-91
2022/10/25 00:50:52;;;;;;;6.93;5.78;;;13.90;99.90;;;;;;6165719;23;20166;-89
2022/10/25 00:56:21;;;;;;;8.23;5.82;;;14.00;99.90;;;;;;6179499;22;20210;-89
2022/10/25 00:58:53;;;;;;;9.13;5.60;;;13.90;99.90;;;;;;6174765;23;20527;-88
2022/10/25 01:01:21;;;;;;;10.15;6.97;;;14.00;99.90;;;;;;6172454;23;20193;-89
2022/10/25 01:03:55;;;;;;;9.57;7.30;;;13.90;99.90;;;;;;6178048;22;20195;-89
2022/10/25 01:11:48;;;;;;;9.18;7.22;;;13.50;99.90;;;;;;6198453;22;20357;-92
2022/10/25 01:14:16;;;;;;;11.30;6.70;;;13.60;99.90;;;;;;6171504;23;20181;-91
2022/10/25 01:17:11;;;;;;;6.93;6.10;;;13.50;99.90;;;;;;6154022;23;20220;-91
2022/10/25 01:22:47;;;;;;;8.75;7.53;;;13.10;99.90;;;;;;6176717;22;20505;-90
2022/10/25 01:25:23;;;;;;;7.45;6.75;;;13.30;99.90;;;;;;6121723;23;20610;-92
2022/10/25 01:28:05;;;;;;;7.82;7.10;;;13.40;99.90;;;;;;6175705;23;20176;-91
2022/10/25 01:50:35;;;;;;;12.10;8.38;;;13.10;99.90;;;;;;6294054;22;20201;-89
2022/10/25 01:53:06;;;;;;;8.73;7.93;;;13.00;99.90;;;;;;6300796;22;20150;-89
2022/10/25 01:55:52;;;;;;;11.48;7.30;;;13.00;99.90;;;;;;6305997;22;20171;-88
2022/10/25 02:07:03;;;;;;;9.40;7.82;;;13.40;99.90;;;;;;6288696;22;20287;-89
2022/10/25 02:10:03;;;;;;;9.80;8.80;;;13.30;99.90;;;;;;6341212;22;20173;-90
2022/10/25 02:13:00;;;;;;;10.05;7.80;;;12.90;99.90;;;;;;6330137;22;20162;-87
2022/10/25 02:15:41;;;;;;;7.00;6.35;;;13.00;99.90;;;;;;6332369;22;20702;-87
2022/10/25 02:18:18;;;;;;;14.43;8.05;;;13.10;99.90;;;;;;6295471;22;20691;-86
2022/10/25 02:20:50;;;;;;;9.02;7.38;;;13.10;99.90;;;;;;6295330;22;20174;-86
2022/10/25 02:23:20;;;;;;;9.43;6.90;;;12.80;99.90;;;;;;6270401;22;20242;-88
2022/10/25 02:25:48;;;;;;;8.93;7.45;;;13.00;99.90;;;;;;6321540;22;20767;-89
2022/10/25 02:28:19;;;;;;;17.85;7.30;;;13.10;99.90;;;;;;6295811;22;20246;-88
2022/10/25 02:30:49;;;;;;;8.68;7.47;;;13.10;99.90;;;;;;6271731;22;20174;-87
2022/10/25 02:33:16;;;;;;;7.82;7.10;;;13.20;99.90;;;;;;6322550;22;20178;-88
2022/10/25 02:36:04;;;;;;;11.27;6.70;;;13.30;99.90;;;;;;6323757;22;20343;-88
2022/10/25 02:38:32;;;;;;;10.35;6.75;;;13.10;99.90;;;;;;6296512;22;20158;-89
2022/10/25 02:41:02;;;;;;;8.45;7.57;;;13.00;99.90;;;;;;6292119;22;20352;-88
2022/10/25 02:43:29;;;;;;;8.85;8.05;;;12.90;99.90;;;;;;6318823;22;20174;-89
2022/10/25 02:45:56;;;;;;;8.45;7.40;;;12.80;99.90;;;;;;6295365;22;20230;-88
2022/10/25 02:48:24;;;;;;;7.28;6.75;;;13.10;99.90;;;;;;6292385;22;20442;-89
2022/10/25 02:50:51;;;;;;;8.18;7.38;;;13.10;99.90;;;;;;6290840;22;20212;-88
2022/10/25 02:53:18;;;;;;;8.60;7.47;;;13.10;99.90;;;;;;6323848;22;20174;-87
2022/10/25 02:55:45;;;;;;;8.43;7.63;;;13.20;99.90;;;;;;6334251;22;20158;-89
2022/10/25 02:58:12;;;;;;;10.60;8.07;;;13.10;99.90;;;;;;6307366;22;20174;-89
2022/10/25 03:00:40;;;;;;;10.20;8.10;;;13.10;99.90;;;;;;6297511;22;20193;-90
2022/10/25 03:03:07;;;;;;;13.00;9.43;;;13.20;99.90;;;;;;6293202;22;20186;-88
2022/10/25 03:05:34;;;;;;;10.02;8.98;;;13.40;99.90;;;;;;6292855;22;20182;-89
2022/10/25 03:08:02;;;;;;;12.30;9.38;;;13.30;99.90;;;;;;6316201;22;20170;-86
2022/10/25 03:10:29;;;;;;;10.25;8.60;;;13.40;99.90;;;;;;6317265;22;20202;-88
2022/10/25 03:12:56;;;;;;;8.95;8.10;;;13.20;99.90;;;;;;6317188;22;20306;-88
2022/10/25 03:15:23;;;;;;;10.82;8.10;;;13.60;99.90;;;;;;6316539;22;20185;-89
2022/10/25 03:17:50;;;;;;;11.43;8.23;;;13.50;99.90;;;;;;6289405;22;20485;-87
2022/10/25 03:20:17;;;;;;;9.20;8.30;;;13.70;99.90;;;;;;6290655;22;20170;-87
2022/10/25 03:22:44;;;;;;;7.30;6.32;;;13.60;99.90;;;;;;6317797;22;20181;-88
2022/10/25 03:25:11;;;;;;;9.70;6.63;;;13.60;99.90;;;;;;6292852;22;20193;-90
2022/10/25 03:27:38;;;;;;;7.45;6.40;;;13.60;99.90;;;;;;6290575;22;20208;-90
2022/10/25 03:30:06;;;;;;;7.43;6.60;;;13.40;99.90;;;;;;6290998;22;20198;-85
2022/10/25 03:32:33;;;;;;;7.40;6.25;;;13.20;99.90;;;;;;6316491;22;20227;-89
2022/10/25 03:35:01;;;;;;;9.20;6.10;;;13.10;99.90;;;;;;6291771;22;20182;-88
2022/10/25 03:37:27;;;;;;;7.90;5.35;;;13.20;99.90;;;;;;6290815;22;20389;-86
2022/10/25 03:39:54;;;;;;;6.05;5.45;;;13.10;99.90;;;;;;6289596;22;20243;-88
2022/10/25 03:42:21;;;;;;;7.07;5.85;;;13.20;99.90;;;;;;6261028;22;20403;-89
2022/10/25 03:44:48;;;;;;;9.45;6.10;;;13.40;99.90;;;;;;6290974;22;20250;-87
2022/10/25 03:47:15;;;;;;;7.85;6.28;;;13.40;99.90;;;;;;6261456;22;20575;-87
2022/10/25 03:49:43;;;;;;;8.27;6.30;;;13.40;99.90;;;;;;6287783;22;20371;-88
2022/10/25 03:52:10;;;;;;;7.80;7.05;;;13.50;99.90;;;;;;6287993;22;20183;-88
2022/10/25 03:54:37;;;;;;;6.75;6.25;;;13.30;99.90;;;;;;6259856;22;20183;-88
2022/10/25 03:57:05;;;;;;;7.85;6.18;;;13.30;99.90;;;;;;6260146;22;20340;-87
2022/10/25 03:59:32;;;;;;;11.50;7.00;;;13.20;99.90;;;;;;6259586;22;20410;-89
2022/10/25 04:02:01;;;;;;;8.75;7.95;;;13.30;99.90;;;;;;6259892;22;20212;-89
2022/10/25 04:04:29;;;;;;;8.43;7.63;;;13.10;99.90;;;;;;6286134;22;20269;-89
2022/10/25 04:06:56;;;;;;;9.15;8.25;;;13.10;99.90;;;;;;6263574;22;20251;-88
2022/10/25 04:09:23;;;;;;;9.02;7.05;;;13.00;99.90;;;;;;6265045;22;20198;-87
2022/10/25 04:11:50;;;;;;;7.85;7.18;;;13.10;99.90;;;;;;6267034;22;20158;-88
2022/10/25 04:14:17;;;;;;;8.38;7.57;;;13.40;99.90;;;;;;6276011;22;20177;-90
2022/10/25 04:16:44;;;;;;;9.50;7.63;;;12.90;99.90;;;;;;6277244;22;20171;-90
2022/10/25 04:19:24;;;;;;;7.97;7.18;;;13.00;99.90;;;;;;6275555;22;20214;-90
2022/10/25 04:21:52;;;;;;;8.48;7.68;;;13.10;99.90;;;;;;6277310;22;20150;-88
2022/10/25 04:24:19;;;;;;;9.75;6.95;;;13.10;99.90;;;;;;6277465;22;20163;-89
2022/10/25 04:26:46;;;;;;;8.38;7.38;;;12.90;99.90;;;;;;6276034;22;20163;-90
2022/10/25 04:29:16;;;;;;;10.25;8.02;;;12.90;99.90;;;;;;6276731;22;20174;-89
2022/10/25 04:31:44;;;;;;;9.13;7.45;;;13.00;99.90;;;;;;6276716;22;20202;-90
2022/10/25 04:34:11;;;;;;;8.77;7.88;;;13.10;99.90;;;;;;6274855;22;20163;-91
2022/10/25 04:36:39;;;;;;;9.10;8.30;;;12.90;99.90;;;;;;6270284;22;20183;-90
2022/10/25 04:39:07;;;;;;;8.80;7.75;;;13.10;99.90;;;;;;6290321;22;20252;-89
2022/10/25 04:41:33;;;;;;;8.63;7.50;;;13.20;99.90;;;;;;6261904;22;20415;-90
2022/10/25 04:44:01;;;;;;;9.50;8.05;;;13.20;99.90;;;;;;6260818;22;20178;-89
2022/10/25 04:46:29;;;;;;;10.73;6.25;;;13.20;99.90;;;;;;6238250;22;20254;-88
2022/10/25 04:48:56;;;;;;;10.93;7.13;;;13.10;99.90;;;;;;6262440;22;20328;-87
2022/10/25 04:51:25;;;;;;;8.25;7.45;;;13.20;99.90;;;;;;6262505;22;20561;-89
2022/10/25 04:53:54;;;;;;;8.63;6.53;;;13.30;99.90;;;;;;6262251;22;20182;-89
2022/10/25 04:56:22;;;;;;;10.80;7.38;;;13.40;99.90;;;;;;6267323;22;20163;-89
2022/10/25 04:58:49;;;;;;;9.95;7.90;;;13.20;99.90;;;;;;6276402;22;20166;-89
2022/10/25 05:01:17;;;;;;;8.30;7.50;;;13.30;99.90;;;;;;6269454;22;20171;-87
2022/10/25 05:03:45;;;;;;;8.55;7.53;;;13.40;99.90;;;;;;6265135;22;20217;-88
2022/10/25 05:06:14;;;;;;;8.40;7.70;;;13.20;99.90;;;;;;6268429;22;20194;-88
2022/10/25 05:08:49;;;;;;;8.43;7.63;;;13.30;99.90;;;;;;6268842;22;20175;-89
2022/10/25 05:11:20;;;;;;;8.25;7.45;;;13.00;99.90;;;;;;6264501;22;20185;-87
2022/10/25 05:13:49;;;;;;;11.40;9.30;;;13.10;99.90;;;;;;6267678;22;20171;-89
2022/10/25 05:43:13;;;;;;;11.68;8.30;;;13.20;99.90;;;;;;6236543;22;20195;-89
2022/10/25 06:12:42;;;;;;;12.05;8.13;;;13.60;99.90;;;;;;6201220;22;20227;-90
2022/10/25 06:20:31;;;;;;;8.30;7.25;;;13.50;99.90;;;;;;6247745;22;20205;-89
2022/10/25 06:57:58;;;;;;;11.32;7.85;;;13.80;99.90;;;;;;6227168;22;20467;-87
2022/10/25 07:03:01;;;;;;;18.73;8.15;;;14.50;99.90;;;;;;6240562;22;20207;-87
2022/10/25 07:05:37;;;;;;;7.95;7.10;;;14.80;99.90;;;;;;6246231;22;20220;-84
2022/10/25 07:08:04;;;;;;;8.10;7.30;;;15.40;99.90;;;;;;6233682;22;20235;-87
2022/10/25 07:10:32;;;;;;;11.57;7.47;;;15.90;99.90;;;;;;6243992;22;20431;-85
2022/10/25 07:12:59;;;;;;;7.63;5.97;;;16.40;99.90;;;;;;6243605;23;20464;-86
2022/10/25 07:15:30;;;;;;;7.97;6.07;;;16.80;99.90;;;;;;6241945;23;20394;-88
2022/10/25 07:17:57;;;;;;;7.60;5.63;;;16.90;99.90;;;;;;6218782;23;20409;-87
2022/10/25 07:31:14;;;;;;;4.47;4.07;;;17.70;99.90;;;;;;6212269;22;20395;-88
2022/10/25 07:36:23;;;;;;;5.10;4.60;;;17.80;99.90;;;;;;6232893;22;20526;-86
2022/10/25 07:41:26;;;;;;;6.83;4.37;;;17.60;99.90;;;;;;6251515;22;20457;-87
2022/10/25 07:49:11;;;;;;;8.93;5.10;;;18.20;99.90;;;;;;6269815;22;20379;-88
2022/10/25 07:51:38;;;;;;;4.70;3.70;;;19.20;99.90;;;;;;6231786;22;20452;-89
2022/10/25 07:56:47;;;;;;;8.00;4.00;;;20.80;99.90;;;;;;6222475;22;21361;-87
2022/10/25 07:59:17;;;;;;;5.10;4.60;;;22.40;99.90;;;;;;6254781;22;20446;-87
2022/10/25 08:01:43;;;;;;;5.00;4.50;;;22.20;99.90;;;;;;6298331;22;20358;-86
2022/10/25 08:04:12;;;;;;;7.00;4.00;;;21.10;99.90;;;;;;6299270;22;20404;-85
2022/10/25 08:06:40;;;;;;;7.93;3.17;;;20.70;99.90;;;;;;6267270;22;20442;-87
2022/10/25 08:09:08;;;;;;;5.33;4.10;;;20.20;99.90;;;;;;6288143;22;20416;-86
2022/10/25 08:11:58;;;;;;;4.30;3.83;;;19.60;99.90;;;;;;6273183;22;20367;-87
2022/10/25 08:14:36;;;;;;;3.97;3.37;;;19.20;99.90;;;;;;6265151;22;20403;-87
2022/10/25 08:17:17;;;;;;;3.40;3.00;;;18.80;99.90;;;;;;6292015;22;20383;-87
2022/10/25 08:19:47;;;;;;;5.30;4.80;;;18.30;99.90;;;;;;6266238;22;20463;-89
2022/10/25 08:22:17;;;;;;;7.17;4.10;;;18.30;99.90;;;;;;6265549;22;20410;-88
2022/10/25 08:24:44;;;;;;;10.23;4.40;;;19.60;99.90;;;;;;6260640;22;20362;-87
2022/10/25 08:27:18;;;;;;;3.20;2.87;;;21.10;99.90;;;;;;6261802;22;20730;-86
2022/10/25 08:29:45;;;;;;;3.43;3.10;;;22.20;99.90;;;;;;6295695;22;20426;-85
2022/10/25 08:32:13;;;;;;;6.43;3.57;;;22.20;99.90;;;;;;6255876;22;20418;-86
2022/10/25 08:34:47;;;;;;;5.73;3.23;;;22.10;99.90;;;;;;6258127;23;20387;-87
2022/10/25 08:37:16;;;;;;;5.97;3.00;;;21.60;99.90;;;;;;6231994;23;20401;-87
2022/10/25 08:39:46;;;;;;;7.27;4.00;;;21.10;99.90;;;;;;6257939;23;20524;-86
2022/10/25 08:42:48;;;;;;;4.40;3.90;;;20.70;99.90;;;;;;6231036;23;20413;-86
2022/10/25 08:45:22;;;;;;;6.70;3.70;;;20.40;99.90;;;;;;6258413;23;20409;-87
2022/10/25 08:47:52;;;;;;;4.80;3.17;;;20.20;99.90;;;;;;6233211;23;20381;-86
2022/10/25 08:50:39;;;;;;;8.20;3.33;;;20.20;99.90;;;;;;6234502;23;20412;-88
2022/10/25 08:53:21;;;;;;;3.30;2.80;;;20.00;99.90;;;;;;6239204;23;20344;-87
2022/10/25 08:55:49;;;;;;;5.13;3.70;;;19.80;99.90;;;;;;6235712;23;20397;-85
2022/10/25 08:58:44;;;;;;;3.57;3.27;;;19.70;99.90;;;;;;6244430;22;20405;-86
2022/10/25 09:01:21;;;;;;;4.90;3.47;;;19.50;99.90;;;;;;6230691;22;20424;-85
2022/10/25 09:03:48;;;;;;;9.43;3.63;;;19.40;99.90;;;;;;6233689;23;20449;-86
2022/10/25 09:06:33;;;;;;;4.37;2.50;;;19.50;99.90;;;;;;6201088;23;20447;-84
2022/10/25 09:09:24;;;;;;;2.70;2.33;;;19.30;99.90;;;;;;6200458;23;20437;-85
2022/10/25 09:12:04;;;;;;;14.80;3.20;;;19.50;99.90;;;;;;6199509;23;20443;-85
2022/10/25 09:14:45;;;;;;;6.07;3.17;;;19.40;99.90;;;;;;6223351;23;20447;-86
2022/10/25 09:17:25;;;;;;;4.63;3.20;;;19.20;99.90;;;;;;6202554;23;20413;-92
2022/10/25 09:19:59;;;;;;;14.93;3.00;;;19.30;99.90;;;;;;6199928;23;20364;-88
2022/10/25 09:22:30;;;;;;;7.33;2.10;;;19.40;99.90;;;;;;6226987;23;20747;-86
2022/10/25 09:25:32;;;;;;;3.50;2.17;;;19.50;99.90;;;;;;6225666;23;20356;-87
2022/10/25 09:28:06;;;;;;;6.20;2.60;;;19.70;99.90;;;;;;6200652;23;20349;-87
2022/10/25 09:30:45;;;;;;;3.63;2.50;;;20.00;99.90;;;;;;6204584;23;20453;-88
2022/10/25 09:33:19;;;;;;;3.97;2.40;;;19.80;99.90;;;;;;6202144;23;20381;-87
2022/10/25 09:38:38;;;;;;;5.43;3.00;;;18.70;99.90;;;;;;6262992;22;20467;-84
2022/10/25 09:41:46;;;;;;;5.70;3.03;;;18.20;99.90;;;;;;6240471;23;20440;-85
2022/10/25 09:44:50;;;;;;;6.23;2.33;;;17.80;99.90;;;;;;6241256;22;20432;-85
2022/10/25 09:47:36;;;;;;;4.40;2.00;;;17.40;99.90;;;;;;6228562;22;20420;-85
2022/10/25 09:50:12;;;;;;;8.37;2.70;;;17.30;99.90;;;;;;6266196;22;20387;-86
2022/10/25 09:53:00;;;;;;;6.50;1.70;;;17.20;99.90;;;;;;6266809;23;20361;-87
2022/10/25 09:55:49;;;;;;;2.07;1.60;;;17.10;99.90;;;;;;6237865;23;20368;-87
2022/10/25 09:58:29;;;;;;;3.40;1.90;;;17.20;99.90;;;;;;6263176;23;20356;-86
2022/10/25 10:01:11;;;;;;;3.70;2.50;;;17.10;99.90;;;;;;6235251;23;20371;-85
2022/10/25 10:03:40;;;;;;;2.43;2.23;;;17.20;99.90;;;;;;6260730;22;20416;-87
2022/10/25 10:06:17;;;;;;;3.20;2.23;;;17.10;99.90;;;;;;6235957;23;20444;-85
2022/10/25 10:08:53;;;;;;;4.03;2.00;;;17.00;99.90;;;;;;6234691;23;20786;-88
2022/10/25 10:11:25;;;;;;;5.60;1.97;;;17.00;99.90;;;;;;6234865;23;20429;-87
2022/10/25 10:14:02;;;;;;;7.07;2.13;;;16.90;99.90;;;;;;6238415;23;20538;-87
2022/10/25 10:16:40;;;;;;;5.40;3.23;;;17.20;99.90;;;;;;6266324;22;20396;-86
2022/10/25 10:19:19;;;;;;;3.67;2.50;;;17.30;99.90;;;;;;6239886;23;20744;-86
2022/10/25 10:21:48;;;;;;;3.00;1.70;;;17.20;99.90;;;;;;6261706;23;20459;-86
2022/10/25 10:24:22;;;;;;;2.20;1.50;;;17.00;99.90;;;;;;6262889;23;20405;-90
2022/10/25 10:26:54;;;;;;;5.07;2.87;;;17.00;99.90;;;;;;6257024;23;20419;-85
2022/10/25 10:29:26;;;;;;;2.43;2.23;;;17.00;99.90;;;;;;6255531;23;20381;-85
2022/10/25 10:31:59;;;;;;;1.50;1.40;;;17.10;99.90;;;;;;6231851;23;20421;-86
2022/10/25 10:34:38;;;;;;;2.97;1.80;;;17.20;99.90;;;;;;6232953;23;20384;-84
2022/10/25 10:37:16;;;;;;;4.10;2.23;;;17.20;99.90;;;;;;6257989;23;20368;-86
2022/10/25 10:40:05;;;;;;;2.93;2.63;;;17.10;99.90;;;;;;6253798;23;20404;-88
2022/10/25 10:42:40;;;;;;;3.33;1.77;;;17.30;99.90;;;;;;6255946;23;20558;-84
2022/10/25 10:45:06;;;;;;;4.73;2.67;;;17.50;99.90;;;;;;6258857;23;20437;-85
2022/10/25 10:47:48;;;;;;;3.77;1.63;;;17.70;99.90;;;;;;6257536;23;20389;-86
2022/10/25 10:50:21;;;;;;;9.70;2.00;;;17.90;99.90;;;;;;6256840;23;20394;-86
2022/10/25 10:53:01;;;;;;;3.77;1.93;;;18.30;99.90;;;;;;6261895;23;20407;-86
2022/10/25 10:55:28;;;;;;;3.20;1.60;;;18.30;99.90;;;;;;6259132;23;20380;-89
2022/10/25 10:58:06;;;;;;;6.17;1.80;;;18.30;99.90;;;;;;6234140;23;20409;-87
2022/10/25 11:00:34;;;;;;;15.53;3.00;;;18.40;99.90;;;;;;6258502;23;20367;-87
2022/10/25 11:03:01;;;;;;;2.47;1.97;;;18.30;99.90;;;;;;6256641;23;20544;-88
2022/10/25 11:05:34;;;;;;;4.63;2.27;;;18.20;99.90;;;;;;6259612;23;20448;-88
2022/10/25 11:08:17;;;;;;;6.17;2.30;;;18.20;99.90;;;;;;6235581;23;20392;-85
2022/10/25 11:10:44;;;;;;;3.83;2.20;;;18.30;99.90;;;;;;6234659;23;20463;-87
2022/10/25 11:13:18;;;;;;;2.90;2.27;;;18.60;99.90;;;;;;6235194;23;20388;-87
2022/10/25 11:15:50;;;;;;;7.67;3.00;;;18.70;99.90;;;;;;6229922;22;21519;-88
2022/10/25 11:18:29;;;;;;;3.17;2.87;;;18.90;99.90;;;;;;6264577;23;20348;-87
2022/10/25 11:21:09;;;;;;;5.50;2.27;;;19.00;99.90;;;;;;6264477;23;20426;-90
2022/10/25 11:23:39;;;;;;;2.83;1.87;;;18.90;99.90;;;;;;6212758;23;20376;-88
2022/10/25 11:26:33;;;;;;;2.60;2.10;;;18.70;99.90;;;;;;6261005;23;20431;-87
2022/10/25 11:29:14;;;;;;;2.87;1.50;;;18.60;99.90;;;;;;6260771;23;20340;-87
2022/10/25 11:31:55;;;;;;;3.17;2.17;;;18.50;99.90;;;;;;6261158;23;20404;-86
2022/10/25 11:34:56;;;;;;;3.00;1.80;;;18.60;99.90;;;;;;6235351;23;20344;-87
2022/10/25 11:37:33;;;;;;;6.50;1.73;;;18.60;99.90;;;;;;6263491;23;20397;-88
2022/10/25 11:40:17;;;;;;;2.20;2.00;;;18.40;99.90;;;;;;6267334;23;20404;-85
2022/10/25 11:43:02;;;;;;;2.73;1.50;;;18.50;99.90;;;;;;6267642;22;20400;-89
2022/10/25 11:45:35;;;;;;;9.23;2.70;;;18.60;99.90;;;;;;6239281;23;20394;-87
2022/10/25 11:48:33;;;;;;;7.87;2.37;;;18.80;99.90;;;;;;6260276;23;20381;-91
2022/10/25 11:51:22;;;;;;;1.90;1.70;;;18.90;99.90;;;;;;6234190;23;20405;-89
2022/10/25 11:54:25;;;;;;;3.07;1.80;;;19.00;99.90;;;;;;6226065;22;20444;-87
2022/10/25 11:57:14;;;;;;;8.63;4.80;;;19.20;99.90;;;;;;6264072;22;20388;-89
2022/10/25 12:00:10;;;;;;;4.50;1.67;;;19.30;99.90;;;;;;6268298;22;20392;-89
2022/10/25 12:03:04;;;;;;;3.60;2.20;;;19.20;99.90;;;;;;6231233;22;20456;-85
2022/10/25 12:06:25;;;;;;;2.40;2.20;;;19.30;99.90;;;;;;6241798;23;20368;-89
2022/10/25 12:09:11;;;;;;;3.93;2.03;;;19.20;99.90;;;;;;6144891;23;20444;-89
2022/10/25 12:11:51;;;;;;;2.30;1.47;;;19.00;99.90;;;;;;6235677;23;20398;-90
2022/10/25 12:14:29;;;;;;;4.33;1.60;;;19.00;99.90;;;;;;6261240;23;20381;-91
2022/10/25 12:16:59;;;;;;;4.30;1.60;;;18.90;99.90;;;;;;6263130;23;20393;-89
2022/10/25 12:19:35;;;;;;;1.80;1.70;;;18.80;99.90;;;;;;6264624;22;20393;-88
2022/10/25 12:24:45;;;;;;;4.03;1.53;;;18.60;99.90;;;;;;6231238;23;20420;-88
2022/10/25 12:27:16;;;;;;;3.37;2.00;;;18.40;99.90;;;;;;6232526;23;20344;-88
2022/10/25 12:29:50;;;;;;;4.73;1.80;;;18.20;99.90;;;;;;6230229;23;20451;-89
2022/10/25 12:32:20;;;;;;;13.30;2.60;;;18.20;99.90;;;;;;6230452;22;20512;-89
2022/10/25 12:34:53;;;;;;;3.87;1.63;;;18.30;99.90;;;;;;6252108;22;20448;-88
2022/10/25 12:37:34;;;;;;;2.50;1.37;;;18.20;99.90;;;;;;6238565;23;20443;-88
2022/10/25 12:40:03;;;;;;;4.43;1.73;;;18.30;99.90;;;;;;6238747;22;20496;-90
2022/10/25 12:42:40;;;;;;;2.60;1.83;;;18.30;99.90;;;;;;6235961;23;20383;-89
2022/10/25 12:45:37;;;;;;;3.83;2.20;;;18.20;99.90;;;;;;6232141;23;20394;-88
2022/10/25 12:48:31;;;;;;;6.47;1.87;;;18.30;99.90;;;;;;6261107;22;20576;-86
2022/10/25 12:51:07;;;;;;;2.47;1.30;;;18.40;99.90;;;;;;6240238;22;20458;-87
2022/10/25 12:54:11;;;;;;;4.80;2.20;;;18.60;99.90;;;;;;6264778;22;20432;-86
2022/10/25 12:56:53;;;;;;;2.70;1.80;;;18.70;99.90;;;;;;6235335;23;20416;-89
2022/10/25 12:59:35;;;;;;;3.20;2.23;;;18.80;99.90;;;;;;6263677;23;20371;-90
2022/10/25 13:05:06;;;;;;;3.00;1.73;;;18.70;99.90;;;;;;6263894;23;20419;-88
2022/10/25 13:07:36;;;;;;;5.27;2.50;;;18.70;99.90;;;;;;6237922;23;20348;-87
2022/10/25 13:10:13;;;;;;;3.90;2.20;;;18.60;99.90;;;;;;6237260;23;20388;-87
2022/10/25 13:12:40;;;;;;;10.80;2.47;;;18.40;99.90;;;;;;6263673;23;20407;-87
2022/10/25 13:15:17;;;;;;;5.13;2.10;;;18.30;99.90;;;;;;6236561;23;20395;-89
2022/10/25 13:17:47;;;;;;;6.30;2.53;;;18.10;99.90;;;;;;6238210;23;20383;-87
2022/10/25 13:20:17;;;;;;;3.50;2.43;;;18.00;99.90;;;;;;6238724;23;20423;-90
2022/10/25 13:22:49;;;;;;;7.53;3.03;;;17.90;99.90;;;;;;6239066;23;20430;-88
2022/10/25 13:25:29;;;;;;;4.80;1.70;;;18.00;99.90;;;;;;6238828;23;20401;-87
2022/10/25 13:31:32;;;;;;;2.37;1.70;;;17.80;99.90;;;;;;6248728;22;20754;-88
2022/10/25 13:36:56;;;;;;;3.77;1.70;;;17.70;99.90;;;;;;6237258;22;20458;-89
2022/10/25 14:20:28;;;;;;;5.40;2.97;;;17.60;99.90;;;;;;6205968;22;20408;-89
2022/10/25 14:36:54;;;;;;;5.03;2.10;;;17.50;99.90;;;;;;6205498;22;20399;-90
2022/10/25 14:52:53;;;;;;;5.70;2.83;;;17.70;99.90;;;;;;6212343;22;20677;-87
2022/10/25 14:55:32;;;;;;;7.10;3.13;;;17.60;99.90;;;;;;6224981;23;20350;-88
2022/10/25 15:38:35;;;;;;;3.43;2.93;;;16.00;99.90;;;;;;6226926;22;20429;-89
2022/10/25 15:43:58;;;;;;;2.13;1.97;;;15.90;99.90;;;;;;6254123;22;20475;-89
2022/10/25 15:46:29;;;;;;;3.00;2.70;;;16.00;99.90;;;;;;6273560;22;20407;-88
2022/10/25 16:07:55;;;;;;;4.67;3.00;;;15.90;99.90;;;;;;6234261;22;20439;-89
2022/10/25 16:18:28;;;;;;;5.27;3.50;;;15.80;99.90;;;;;;6207264;22;20388;-89
2022/10/25 16:20:58;;;;;;;5.57;4.87;;;15.60;99.90;;;;;;6220962;23;20378;-88
2022/10/25 16:34:16;;;;;;;7.63;3.10;;;15.10;99.90;;;;;;6252672;22;20518;-88
2022/10/25 16:36:44;;;;;;;7.73;4.10;;;15.00;99.90;;;;;;6231318;23;20472;-89
2022/10/25 17:00:40;;;;;;;7.53;5.07;;;15.30;99.90;;;;;;6225630;22;20186;-89
2022/10/25 17:08:24;;;;;;;6.07;4.43;;;15.40;99.90;;;;;;6220550;22;20564;-89
2022/10/25 17:29:57;;;;;;;6.40;5.03;;;15.50;99.90;;;;;;6245298;22;20457;-88
2022/10/25 17:40:32;;;;;;;6.20;5.03;;;15.20;99.90;;;;;;6224990;22;20555;-90
2022/10/25 17:56:24;;;;;;;9.87;5.17;;;14.90;99.90;;;;;;6210243;22;20640;-89
2022/10/25 17:58:56;;;;;;;8.35;4.50;;;14.80;99.90;;;;;;6245746;23;20367;-88
2022/10/25 18:20:18;;;;;;;7.40;4.03;;;14.50;99.90;;;;;;6221595;22;20262;-89
2022/10/25 18:22:45;;;;;;;8.27;3.85;;;14.50;99.90;;;;;;6247509;23;20208;-88
2022/10/25 18:30:35;;;;;;;6.40;4.22;;;14.20;99.90;;;;;;6258614;22;20244;-88
2022/10/25 18:33:07;;;;;;;6.43;4.40;;;14.20;99.90;;;;;;6237238;23;20207;-88
2022/10/25 18:35:34;;;;;;;6.25;4.90;;;14.10;99.90;;;;;;6233389;23;20201;-86
2022/10/25 18:38:01;;;;;;;6.03;4.80;;;14.10;99.90;;;;;;6235727;23;20198;-86
2022/10/25 18:40:28;;;;;;;5.80;4.30;;;14.10;99.90;;;;;;6235475;23;20479;-89
2022/10/25 18:42:55;;;;;;;6.72;4.38;;;14.10;99.90;;;;;;6232141;23;20198;-87
2022/10/25 18:45:22;;;;;;;8.95;4.57;;;14.00;99.90;;;;;;6234853;23;20239;-88
2022/10/25 18:47:52;;;;;;;4.20;3.63;;;14.00;99.90;;;;;;6238363;23;20295;-87
2022/10/25 18:50:20;;;;;;;7.45;4.82;;;13.90;99.90;;;;;;6269194;22;20240;-87
2022/10/25 18:52:48;;;;;;;6.97;4.50;;;13.90;99.90;;;;;;6218837;22;20202;-88
2022/10/25 18:55:15;;;;;;;4.45;3.67;;;13.90;99.90;;;;;;6270568;22;20195;-88
2022/10/25 18:57:44;;;;;;;5.03;4.53;;;13.80;99.90;;;;;;6241188;22;20175;-89
2022/10/25 19:00:13;;;;;;;5.38;4.65;;;13.70;99.90;;;;;;6244455;22;20438;-89
2022/10/25 19:02:40;;;;;;;11.05;5.10;;;13.70;99.90;;;;;;6242048;22;20180;-88
2022/10/25 19:05:09;;;;;;;8.23;5.40;;;13.60;99.90;;;;;;6240031;22;20174;-87
2022/10/25 19:07:36;;;;;;;8.63;5.25;;;13.60;99.90;;;;;;6244232;23;20160;-89
2022/10/25 19:10:17;;;;;;;7.13;5.32;;;13.50;99.90;;;;;;6246702;22;20155;-90
2022/10/25 19:15:20;;;;;;;7.45;5.38;;;13.50;99.90;;;;;;6267437;22;20419;-91
2022/10/25 19:17:51;;;;;;;8.30;5.90;;;13.50;99.90;;;;;;6239534;23;20186;-90
2022/10/25 19:20:17;;;;;;;9.30;5.70;;;13.40;99.90;;;;;;6239401;23;20194;-89
2022/10/25 19:22:45;;;;;;;10.20;6.45;;;13.40;99.90;;;;;;6240034;23;20244;-89
2022/10/25 19:25:19;;;;;;;8.93;5.88;;;13.40;99.90;;;;;;6261898;23;20233;-90
2022/10/25 19:27:49;;;;;;;8.88;6.75;;;13.30;99.90;;;;;;6235254;23;20433;-90
2022/10/25 19:30:18;;;;;;;5.95;5.38;;;13.10;99.90;;;;;;6235927;23;20188;-90
2022/10/25 19:32:50;;;;;;;9.77;7.50;;;13.10;99.90;;;;;;6237831;23;20259;-89
2022/10/25 19:35:21;;;;;;;7.50;6.75;;;13.10;99.90;;;;;;6236943;23;20419;-90
2022/10/25 19:37:49;;;;;;;10.88;6.45;;;13.10;99.90;;;;;;6240340;23;20210;-90
2022/10/25 19:40:19;;;;;;;11.20;7.10;;;13.00;99.90;;;;;;6220635;23;20172;-90
2022/10/25 19:42:47;;;;;;;17.25;7.65;;;13.00;99.90;;;;;;6222203;22;20203;-90
2022/10/25 19:45:17;;;;;;;8.93;6.43;;;13.00;99.90;;;;;;6270621;22;20219;-89
2022/10/25 19:47:55;;;;;;;13.60;7.28;;;13.00;99.90;;;;;;6246469;22;20194;-89
2022/10/25 19:50:23;;;;;;;8.82;7.15;;;13.00;99.90;;;;;;6231885;22;20191;-88
2022/10/25 19:52:50;;;;;;;9.63;7.22;;;12.90;99.90;;;;;;6242801;22;20243;-89
2022/10/25 19:55:18;;;;;;;13.52;6.95;;;13.00;99.90;;;;;;6244001;23;20177;-89
2022/10/25 19:57:45;;;;;;;12.38;9.30;;;12.90;99.90;;;;;;6242820;23;20386;-89
2022/10/25 20:00:14;;;;;;;9.60;7.63;;;12.80;99.90;;;;;;6240818;23;20171;-90
2022/10/25 20:02:41;;;;;;;8.90;6.82;;;12.80;99.90;;;;;;6239156;23;20182;-90
2022/10/25 20:05:09;;;;;;;10.48;6.40;;;12.80;99.90;;;;;;6241059;22;20199;-88
2022/10/25 20:07:38;;;;;;;8.55;7.20;;;12.80;99.90;;;;;;6243951;22;20376;-90
2022/10/25 20:10:06;;;;;;;9.40;6.55;;;12.80;99.90;;;;;;6238170;23;20385;-89
2022/10/25 20:12:34;;;;;;;7.70;6.90;;;12.80;99.90;;;;;;6264676;23;20198;-90
2022/10/25 20:15:01;;;;;;;13.82;8.68;;;12.70;99.90;;;;;;6238197;23;20187;-89
2022/10/25 20:17:28;;;;;;;10.48;7.90;;;12.70;99.90;;;;;;6244905;22;20218;-90
2022/10/25 20:19:56;;;;;;;10.23;7.95;;;12.70;99.90;;;;;;6240827;22;20201;-89
2022/10/25 20:22:23;;;;;;;8.90;7.80;;;12.70;99.90;;;;;;6200076;23;20223;-88
2022/10/25 20:24:53;;;;;;;11.07;7.53;;;12.70;99.90;;;;;;6213620;23;20194;-89
2022/10/25 20:27:20;;;;;;;18.65;7.88;;;12.70;99.90;;;;;;6214578;23;20563;-89
2022/10/25 20:32:23;;;;;;;11.93;8.38;;;12.80;99.90;;;;;;6240229;22;20506;-89
2022/10/25 20:34:51;;;;;;;10.57;8.52;;;12.70;99.90;;;;;;6242737;22;20167;-89
2022/10/25 20:37:18;;;;;;;11.20;7.57;;;12.70;99.90;;;;;;6244513;23;20175;-91
2022/10/25 21:07:15;;;;;;;14.15;8.98;;;12.30;99.90;;;;;;6205875;22;20506;-90
2022/10/25 21:15:13;;;;;;;15.57;11.82;;;12.30;99.90;;;;;;6229500;22;20450;-89
2022/10/25 21:25:56;;;;;;;14.60;12.20;;;12.20;99.90;;;;;;6241981;22;20203;-91
2022/10/25 21:28:25;;;;;;;16.50;14.45;;;12.20;99.90;;;;;;6237226;23;20178;-91
2022/10/25 21:30:53;;;;;;;15.73;13.10;;;12.20;99.90;;;;;;6236957;23;20195;-92